Time;durP1;ratioP1;P1;durP2;ratioP2;P2;SDS_P1;SDS_P2;PMS_P1;PMS_P2;Temp;Humidity;BMP_temperature;BMP_pressure;BME280_temperature;BME280_humidity;BME280_pressure;Samples;Min_cycle;Max_cycle;Signal;HPM_P1;HPM_P2
2022/10/27 00:01:58;;;;;;;18.83;11.10;;;12.80;99.90;;;;;;4958994;28;20394;-76
2022/10/27 00:04:23;;;;;;;20.27;11.27;;;12.80;99.90;;;;;;4974828;28;20043;-76
2022/10/27 00:06:49;;;;;;;20.88;11.45;;;12.70;99.90;;;;;;4975228;28;20046;-76
2022/10/27 00:09:15;;;;;;;21.58;11.60;;;12.70;99.90;;;;;;4959193;28;20046;-75
2022/10/27 00:11:40;;;;;;;18.83;10.82;;;12.70;99.90;;;;;;4975455;28;20039;-76
2022/10/27 00:14:06;;;;;;;17.27;10.82;;;12.60;99.90;;;;;;4974860;28;20089;-76
2022/10/27 00:16:32;;;;;;;20.63;11.95;;;12.60;99.90;;;;;;4974978;28;20054;-76
2022/10/27 00:18:58;;;;;;;17.70;11.48;;;12.60;99.90;;;;;;4974200;28;20382;-76
2022/10/27 00:21:23;;;;;;;20.23;11.77;;;12.60;99.90;;;;;;4974866;28;20053;-76
2022/10/27 00:23:50;;;;;;;22.73;12.90;;;12.50;99.90;;;;;;4975082;28;20431;-76
2022/10/27 00:26:18;;;;;;;20.25;11.30;;;12.50;99.90;;;;;;4974954;28;20047;-76
2022/10/27 00:28:44;;;;;;;17.90;9.95;;;12.50;99.90;;;;;;4974850;28;20055;-76
2022/10/27 00:31:18;;;;;;;18.58;11.00;;;12.50;99.90;;;;;;4958868;28;20050;-76
2022/10/27 00:33:46;;;;;;;17.02;10.52;;;12.40;99.90;;;;;;4974402;28;20078;-76
2022/10/27 00:36:20;;;;;;;18.67;11.27;;;12.40;99.90;;;;;;4974862;28;20073;-76
2022/10/27 00:38:46;;;;;;;20.00;12.45;;;12.50;99.90;;;;;;4974521;28;20050;-76
2022/10/27 00:41:36;;;;;;;20.63;12.23;;;12.50;99.90;;;;;;4974793;28;20049;-76
2022/10/27 00:44:39;;;;;;;16.80;11.57;;;12.50;99.90;;;;;;4974089;28;20050;-76
2022/10/27 00:47:13;;;;;;;18.05;12.23;;;12.50;99.90;;;;;;4979307;28;20078;-75
2022/10/27 00:49:45;;;;;;;20.60;12.55;;;12.50;99.90;;;;;;4972496;28;20097;-76
2022/10/27 00:52:19;;;;;;;;;;;12.50;99.90;;;;;;4975437;28;20049;-76
2022/10/27 00:54:46;;;;;;;17.98;10.90;;;12.60;99.90;;;;;;4973758;28;19929;-76
2022/10/27 00:57:11;;;;;;;20.98;12.93;;;12.60;99.90;;;;;;4974534;28;20047;-76
2022/10/27 00:59:38;;;;;;;23.15;13.60;;;12.60;99.90;;;;;;4974165;28;20097;-76
2022/10/27 01:02:06;;;;;;;22.65;13.30;;;12.70;99.90;;;;;;4973640;28;20039;-76
2022/10/27 01:04:43;;;;;;;23.02;13.55;;;12.70;99.90;;;;;;4973443;28;20050;-75
2022/10/27 01:07:10;;;;;;;21.90;13.13;;;12.80;99.90;;;;;;4969288;28;20043;-75
2022/10/27 01:09:36;;;;;;;24.88;13.88;;;12.80;99.90;;;;;;4969671;28;20055;-76
2022/10/27 01:12:02;;;;;;;20.10;13.13;;;12.80;99.90;;;;;;4972360;28;20057;-76
2022/10/27 01:14:28;;;;;;;21.90;13.35;;;12.80;99.90;;;;;;4974146;28;20051;-76
2022/10/27 01:17:26;;;;;;;24.45;13.23;;;12.80;99.90;;;;;;4955740;28;20131;-76
2022/10/27 01:20:00;;;;;;;21.08;12.82;;;12.80;99.90;;;;;;4939393;28;20497;-76
2022/10/27 01:22:40;;;;;;;22.95;12.93;;;12.90;99.90;;;;;;4967921;28;20104;-76
2022/10/27 01:25:08;;;;;;;25.45;14.18;;;12.90;99.90;;;;;;4973572;28;20043;-76
2022/10/27 01:27:37;;;;;;;20.73;12.85;;;12.90;99.90;;;;;;4973894;28;20157;-76
2022/10/27 01:30:07;;;;;;;19.27;12.65;;;13.00;99.90;;;;;;4957521;28;20130;-76
2022/10/27 01:32:38;;;;;;;20.00;12.27;;;13.00;99.90;;;;;;4957842;28;20049;-76
2022/10/27 01:35:12;;;;;;;19.90;12.35;;;13.00;99.90;;;;;;4972828;28;20047;-76
2022/10/27 01:37:56;;;;;;;21.35;13.20;;;13.00;99.90;;;;;;4974068;28;20097;-76
2022/10/27 01:40:34;;;;;;;20.63;13.27;;;13.10;99.90;;;;;;4973445;28;20035;-76
2022/10/27 01:43:05;;;;;;;21.08;12.48;;;13.10;99.90;;;;;;4972870;28;20089;-76
2022/10/27 01:45:34;;;;;;;20.42;13.32;;;13.10;99.90;;;;;;4973094;28;20082;-76
2022/10/27 01:48:01;;;;;;;19.67;12.50;;;13.20;99.90;;;;;;4973164;28;20048;-76
2022/10/27 01:50:33;;;;;;;19.98;12.88;;;13.20;99.90;;;;;;4968654;28;20047;-76
2022/10/27 01:52:59;;;;;;;21.90;13.30;;;13.20;99.90;;;;;;4964978;28;20549;-76
2022/10/27 01:55:35;;;;;;;18.73;12.48;;;13.30;99.90;;;;;;4973463;28;20093;-76
2022/10/27 01:58:19;;;;;;;21.05;13.02;;;13.30;99.90;;;;;;4971093;28;20347;-76
2022/10/27 02:01:17;;;;;;;19.27;12.32;;;13.30;99.90;;;;;;4972790;28;20046;-76
2022/10/27 02:04:00;;;;;;;19.67;12.32;;;13.30;99.90;;;;;;4972458;28;20043;-76
2022/10/27 02:06:44;;;;;;;20.38;11.95;;;13.30;99.90;;;;;;4973182;28;20045;-76
2022/10/27 02:09:12;;;;;;;20.98;12.23;;;13.40;99.90;;;;;;4973143;28;20042;-76
2022/10/27 02:11:41;;;;;;;20.05;12.80;;;13.40;99.90;;;;;;4973508;28;20057;-76
2022/10/27 02:14:08;;;;;;;20.90;13.13;;;13.40;99.90;;;;;;4956781;28;20035;-76
2022/10/27 02:16:41;;;;;;;21.10;13.30;;;13.50;99.90;;;;;;4956976;28;20050;-75
2022/10/27 02:19:17;;;;;;;20.75;13.32;;;13.50;99.90;;;;;;4972062;28;20049;-75
2022/10/27 02:21:45;;;;;;;22.67;13.55;;;13.50;99.90;;;;;;4973305;28;20085;-75
2022/10/27 02:24:11;;;;;;;24.40;13.73;;;13.50;99.90;;;;;;4956827;28;20050;-75
2022/10/27 02:26:46;;;;;;;24.48;13.93;;;13.50;99.90;;;;;;4973079;28;20122;-75
2022/10/27 02:29:17;;;;;;;25.20;14.25;;;13.50;99.90;;;;;;4966841;28;20041;-76
2022/10/27 02:31:48;;;;;;;20.85;12.98;;;13.50;99.90;;;;;;4972805;28;20394;-75
2022/10/27 02:34:15;;;;;;;22.17;14.05;;;13.60;99.90;;;;;;4972360;28;20097;-75
2022/10/27 02:36:41;;;;;;;22.02;14.25;;;13.60;99.90;;;;;;4972898;28;20117;-75
2022/10/27 02:39:07;;;;;;;23.00;13.20;;;13.60;99.90;;;;;;4964280;28;20178;-75
2022/10/27 02:41:32;;;;;;;20.83;12.05;;;13.50;99.90;;;;;;4972390;28;20440;-75
2022/10/27 02:43:58;;;;;;;26.10;13.95;;;13.50;99.90;;;;;;4956696;28;20046;-75
2022/10/27 02:46:24;;;;;;;25.20;15.15;;;13.50;99.90;;;;;;4972648;28;20534;-75
2022/10/27 02:48:50;;;;;;;25.10;14.75;;;13.50;99.90;;;;;;4955511;28;20093;-74
2022/10/27 02:51:15;;;;;;;19.05;13.93;;;13.50;99.90;;;;;;4972645;28;20034;-74
2022/10/27 02:53:41;;;;;;;21.77;13.75;;;13.50;99.90;;;;;;4956478;28;20039;-75
2022/10/27 02:56:07;;;;;;;23.48;14.10;;;13.40;99.90;;;;;;4956410;28;20101;-75
2022/10/27 02:58:34;;;;;;;21.65;13.75;;;13.40;99.90;;;;;;4972517;28;20051;-75
2022/10/27 03:00:59;;;;;;;22.30;13.55;;;13.40;99.90;;;;;;4956748;28;20046;-75
2022/10/27 03:03:25;;;;;;;16.42;12.85;;;13.30;99.90;;;;;;4971338;28;20039;-74
2022/10/27 03:05:51;;;;;;;19.90;13.63;;;13.40;99.90;;;;;;4972664;28;20042;-74
2022/10/27 03:08:17;;;;;;;21.88;14.07;;;13.30;99.90;;;;;;4972816;28;20080;-74
2022/10/27 03:10:43;;;;;;;22.23;14.35;;;13.30;99.90;;;;;;4956776;28;20085;-74
2022/10/27 03:13:09;;;;;;;21.48;13.70;;;13.30;99.90;;;;;;4965773;28;20047;-74
2022/10/27 03:15:35;;;;;;;23.48;13.98;;;13.40;99.90;;;;;;4960417;28;20093;-74
2022/10/27 03:18:01;;;;;;;21.27;14.35;;;13.40;99.90;;;;;;4975772;28;20414;-74
2022/10/27 03:20:27;;;;;;;22.65;14.32;;;13.40;99.90;;;;;;4976194;28;20101;-75
2022/10/27 03:22:53;;;;;;;20.00;12.88;;;13.40;99.90;;;;;;4976179;28;20074;-75
2022/10/27 03:25:19;;;;;;;24.40;14.23;;;13.30;99.90;;;;;;4960562;28;20074;-75
2022/10/27 03:27:45;;;;;;;19.25;14.02;;;13.30;99.90;;;;;;4975910;28;20093;-74
2022/10/27 03:30:14;;;;;;;19.40;14.02;;;13.20;99.90;;;;;;4960020;28;20129;-74
2022/10/27 03:32:43;;;;;;;22.67;14.15;;;13.20;99.90;;;;;;4975902;28;20051;-74
2022/10/27 03:35:09;;;;;;;21.50;14.30;;;13.20;99.90;;;;;;4974926;28;20049;-75
2022/10/27 03:37:34;;;;;;;21.02;14.48;;;13.10;99.90;;;;;;4976247;28;20042;-75
2022/10/27 03:40:00;;;;;;;22.90;14.82;;;13.10;99.90;;;;;;4948038;28;20050;-74
2022/10/27 03:42:26;;;;;;;21.15;14.30;;;13.10;99.90;;;;;;4959835;28;20054;-73
2022/10/27 03:44:52;;;;;;;25.45;14.25;;;13.10;99.90;;;;;;4959193;28;20035;-74
2022/10/27 03:47:17;;;;;;;21.77;14.48;;;13.10;99.90;;;;;;4976041;28;20050;-74
2022/10/27 03:49:43;;;;;;;21.83;14.68;;;13.10;99.90;;;;;;4958886;28;20530;-74
2022/10/27 03:52:09;;;;;;;21.30;13.82;;;13.10;99.90;;;;;;4943667;28;20414;-74
2022/10/27 03:54:34;;;;;;;21.77;14.50;;;13.10;99.90;;;;;;4975701;28;20070;-74
2022/10/27 03:57:00;;;;;;;20.63;13.88;;;13.10;99.90;;;;;;4975450;28;20034;-74
2022/10/27 03:59:26;;;;;;;19.60;14.45;;;13.00;99.90;;;;;;4975700;28;20047;-74
2022/10/27 04:01:51;;;;;;;19.33;13.60;;;12.90;99.90;;;;;;4975270;28;20035;-74
2022/10/27 04:04:17;;;;;;;19.52;13.68;;;12.90;99.90;;;;;;4974742;28;20077;-74
2022/10/27 04:06:43;;;;;;;19.67;13.70;;;12.90;99.90;;;;;;4972367;28;20043;-74
2022/10/27 04:09:08;;;;;;;21.38;13.55;;;12.90;99.90;;;;;;4974267;28;20503;-74
2022/10/27 04:11:34;;;;;;;22.13;15.27;;;12.80;99.90;;;;;;4975689;28;20047;-74
2022/10/27 04:13:59;;;;;;;25.60;15.80;;;12.80;99.90;;;;;;4959422;28;20483;-74
2022/10/27 04:16:25;;;;;;;30.27;18.20;;;12.70;99.90;;;;;;4964940;28;20117;-74
2022/10/27 04:18:51;;;;;;;27.85;18.80;;;12.60;99.90;;;;;;4974094;28;20039;-74
2022/10/27 04:21:16;;;;;;;34.35;21.48;;;12.60;99.90;;;;;;4958608;28;20043;-73
2022/10/27 04:23:42;;;;;;;23.55;14.82;;;12.60;99.90;;;;;;4974350;28;20352;-73
2022/10/27 04:26:09;;;;;;;24.67;16.20;;;12.50;99.90;;;;;;4943195;28;20046;-74
2022/10/27 04:28:34;;;;;;;27.48;18.88;;;12.50;99.90;;;;;;4974924;28;20082;-74
2022/10/27 04:31:00;;;;;;;28.17;18.35;;;12.40;99.90;;;;;;4958220;28;20066;-74
2022/10/27 04:33:26;;;;;;;25.25;16.05;;;12.40;99.90;;;;;;4955241;28;20129;-73
2022/10/27 04:35:51;;;;;;;22.40;15.48;;;12.40;99.90;;;;;;4971773;28;20514;-73
2022/10/27 04:38:17;;;;;;;26.23;16.25;;;12.40;99.90;;;;;;4967055;28;20039;-74
2022/10/27 04:40:43;;;;;;;25.13;16.05;;;12.40;99.90;;;;;;4949673;28;20088;-73
2022/10/27 04:43:08;;;;;;;25.63;17.13;;;12.30;99.90;;;;;;4970341;28;20046;-74
2022/10/27 04:45:34;;;;;;;28.45;17.33;;;12.30;99.90;;;;;;4966361;28;20038;-74
2022/10/27 04:48:00;;;;;;;26.65;16.25;;;12.30;99.90;;;;;;4958336;28;20039;-73
2022/10/27 04:50:25;;;;;;;26.80;15.68;;;12.30;99.90;;;;;;4985655;28;20035;-73
2022/10/27 04:52:59;;;;;;;22.38;15.82;;;12.40;99.90;;;;;;4958418;28;20106;-73
2022/10/27 04:55:26;;;;;;;26.23;15.80;;;12.40;99.90;;;;;;4970639;28;20078;-73
2022/10/27 04:57:52;;;;;;;23.65;16.00;;;12.40;99.90;;;;;;4941986;28;20075;-72
2022/10/27 05:00:18;;;;;;;25.10;15.50;;;12.40;99.90;;;;;;4987944;28;20054;-72
2022/10/27 05:02:44;;;;;;;21.70;15.38;;;12.50;99.90;;;;;;4973928;28;20039;-73
2022/10/27 05:05:09;;;;;;;21.83;15.02;;;12.50;99.90;;;;;;4984491;28;20047;-74
2022/10/27 05:07:35;;;;;;;23.30;14.55;;;12.40;99.90;;;;;;4973954;28;20138;-73
2022/10/27 05:10:01;;;;;;;23.23;15.70;;;12.40;99.90;;;;;;4984067;28;20039;-73
2022/10/27 05:12:26;;;;;;;23.20;15.02;;;12.40;99.90;;;;;;4982365;28;20038;-73
2022/10/27 05:14:52;;;;;;;24.45;17.10;;;12.50;99.90;;;;;;4969864;28;20117;-74
2022/10/27 05:17:18;;;;;;;26.05;16.30;;;12.50;99.90;;;;;;4941182;28;20038;-73
2022/10/27 05:19:43;;;;;;;25.58;17.30;;;12.60;99.90;;;;;;4983758;28;20371;-73
2022/10/27 05:22:09;;;;;;;28.58;17.35;;;12.70;99.90;;;;;;4988281;28;20101;-73
2022/10/27 05:24:35;;;;;;;23.30;16.15;;;12.80;99.90;;;;;;4986572;28;20089;-74
2022/10/27 05:27:00;;;;;;;23.70;16.88;;;12.80;99.90;;;;;;4973527;28;20035;-73
2022/10/27 05:29:26;;;;;;;24.48;16.85;;;12.90;99.90;;;;;;4969577;28;20470;-74
2022/10/27 05:31:52;;;;;;;23.42;16.20;;;12.90;99.90;;;;;;4971288;28;20455;-73
2022/10/27 05:34:18;;;;;;;24.95;16.05;;;12.90;99.90;;;;;;4958828;28;20047;-74
2022/10/27 05:36:43;;;;;;;22.95;15.88;;;13.00;99.90;;;;;;4969691;28;20039;-73
2022/10/27 05:39:09;;;;;;;22.05;15.55;;;13.00;99.90;;;;;;4972956;28;20378;-72
2022/10/27 05:41:35;;;;;;;23.00;15.60;;;13.10;99.90;;;;;;4973475;28;20479;-73
2022/10/27 05:44:00;;;;;;;24.13;15.93;;;13.10;99.90;;;;;;4973620;28;20046;-72
2022/10/27 05:46:26;;;;;;;21.98;15.52;;;13.10;99.90;;;;;;4973591;28;20490;-73
2022/10/27 05:48:52;;;;;;;20.75;14.75;;;13.10;99.90;;;;;;4967077;28;20065;-73
2022/10/27 05:51:17;;;;;;;27.65;15.18;;;13.10;99.90;;;;;;4962899;28;20062;-73
2022/10/27 05:53:43;;;;;;;22.35;14.82;;;13.20;99.90;;;;;;4968023;28;20034;-73
2022/10/27 05:56:09;;;;;;;19.42;14.23;;;13.20;99.90;;;;;;4964377;28;20129;-73
2022/10/27 05:58:34;;;;;;;20.48;13.32;;;13.20;99.90;;;;;;4971782;28;20073;-72
2022/10/27 06:01:00;;;;;;;20.77;13.65;;;13.30;99.90;;;;;;4954952;28;20047;-72
2022/10/27 06:03:26;;;;;;;21.48;13.43;;;13.30;99.90;;;;;;4953960;28;20109;-73
2022/10/27 06:05:52;;;;;;;19.92;13.43;;;13.30;99.90;;;;;;4956406;28;20074;-72
2022/10/27 06:08:19;;;;;;;19.67;13.23;;;13.30;99.90;;;;;;4957311;28;20130;-72
2022/10/27 06:10:45;;;;;;;20.00;13.13;;;13.40;99.90;;;;;;4972895;28;20054;-72
2022/10/27 06:13:17;;;;;;;24.27;13.57;;;13.40;99.90;;;;;;4972582;28;20046;-72
2022/10/27 06:15:43;;;;;;;21.70;12.95;;;13.40;99.90;;;;;;4972908;28;20038;-73
2022/10/27 06:18:09;;;;;;;20.70;13.02;;;13.40;99.90;;;;;;4971561;28;20066;-71
2022/10/27 06:20:34;;;;;;;21.50;13.18;;;13.40;99.90;;;;;;4973123;28;20479;-72
2022/10/27 06:23:00;;;;;;;21.65;13.63;;;13.50;99.90;;;;;;4940705;28;20031;-73
2022/10/27 06:25:26;;;;;;;21.50;13.02;;;13.50;99.90;;;;;;4973200;28;20043;-72
2022/10/27 06:27:51;;;;;;;18.73;12.20;;;13.50;99.90;;;;;;4970709;28;20526;-72
2022/10/27 06:30:17;;;;;;;18.48;11.95;;;13.60;99.90;;;;;;4973318;28;20483;-73
2022/10/27 06:32:43;;;;;;;20.30;12.20;;;13.60;99.90;;;;;;4958345;28;20055;-72
2022/10/27 06:35:09;;;;;;;18.88;11.88;;;13.50;99.90;;;;;;4943200;28;20047;-73
2022/10/27 06:37:43;;;;;;;19.67;11.82;;;13.70;99.90;;;;;;4972229;28;20043;-72
2022/10/27 06:40:11;;;;;;;18.02;11.60;;;13.70;99.90;;;;;;4972568;28;20435;-72
2022/10/27 06:42:40;;;;;;;18.98;11.52;;;13.70;99.90;;;;;;4972587;28;20034;-71
2022/10/27 06:45:06;;;;;;;19.73;11.43;;;13.70;99.90;;;;;;4949854;28;20062;-72
2022/10/27 06:47:32;;;;;;;18.15;11.38;;;13.70;99.90;;;;;;4969680;28;20054;-72
2022/10/27 06:49:58;;;;;;;17.55;10.60;;;13.70;99.90;;;;;;4971405;28;20053;-72
2022/10/27 06:52:25;;;;;;;18.50;11.48;;;13.70;99.90;;;;;;4955213;28;20133;-72
2022/10/27 06:54:51;;;;;;;18.85;11.57;;;13.70;99.90;;;;;;4970065;28;20054;-72
2022/10/27 06:57:16;;;;;;;18.27;11.57;;;13.80;99.90;;;;;;4977884;28;20043;-72
2022/10/27 06:59:42;;;;;;;21.15;11.93;;;13.80;99.90;;;;;;4976223;28;20166;-72
2022/10/27 07:02:11;;;;;;;19.75;11.50;;;13.80;99.90;;;;;;4970959;28;20105;-72
2022/10/27 07:04:36;;;;;;;18.08;11.55;;;13.90;99.90;;;;;;4968896;28;20063;-73
2022/10/27 07:07:02;;;;;;;15.35;11.07;;;13.90;99.90;;;;;;4969939;28;20058;-74
2022/10/27 07:09:28;;;;;;;18.77;12.10;;;13.90;99.90;;;;;;4968655;28;20038;-73
2022/10/27 07:11:54;;;;;;;18.80;11.93;;;13.90;99.90;;;;;;4968555;28;20070;-74
2022/10/27 07:14:19;;;;;;;19.27;11.82;;;14.00;99.90;;;;;;4969344;28;20088;-73
2022/10/27 07:16:45;;;;;;;18.88;12.27;;;14.00;99.90;;;;;;4954449;28;20118;-72
2022/10/27 07:19:11;;;;;;;17.08;11.20;;;14.10;99.90;;;;;;4952221;28;20054;-74
2022/10/27 07:21:36;;;;;;;19.25;12.57;;;14.10;99.90;;;;;;4940803;28;20509;-74
2022/10/27 07:24:02;;;;;;;16.20;10.15;;;14.20;99.90;;;;;;4969769;28;20078;-72
2022/10/27 07:26:28;;;;;;;16.33;10.85;;;14.20;99.90;;;;;;4969886;28;20089;-74
2022/10/27 07:28:54;;;;;;;16.58;11.52;;;14.20;99.90;;;;;;4970609;28;20034;-75
2022/10/27 07:31:20;;;;;;;17.75;11.82;;;14.20;99.90;;;;;;4977624;28;20039;-74
2022/10/27 07:33:45;;;;;;;16.35;11.48;;;14.20;99.90;;;;;;4970225;28;20105;-72
2022/10/27 07:36:11;;;;;;;18.35;11.90;;;14.20;99.90;;;;;;4969558;28;20054;-72
2022/10/27 07:38:37;;;;;;;16.55;11.30;;;14.30;99.90;;;;;;4968694;28;20075;-75
2022/10/27 07:41:04;;;;;;;17.63;11.30;;;14.30;99.90;;;;;;4994242;28;20051;-73
2022/10/27 07:43:29;;;;;;;17.85;11.00;;;14.40;99.90;;;;;;4981543;28;20039;-73
2022/10/27 07:45:55;;;;;;;15.15;10.68;;;14.40;99.90;;;;;;4969605;28;20054;-73
2022/10/27 07:48:21;;;;;;;17.63;11.15;;;14.40;99.90;;;;;;4968069;28;20051;-73
2022/10/27 07:50:46;;;;;;;17.33;10.25;;;14.50;99.90;;;;;;4970165;28;20054;-72
2022/10/27 07:53:15;;;;;;;15.68;10.65;;;14.50;99.90;;;;;;4968971;28;20110;-73
2022/10/27 07:55:41;;;;;;;18.23;11.00;;;14.50;99.90;;;;;;4969507;28;20061;-72
2022/10/27 07:58:12;;;;;;;17.20;10.27;;;14.60;99.90;;;;;;4954288;28;20055;-73
2022/10/27 08:00:41;;;;;;;18.65;10.48;;;14.60;99.90;;;;;;4970618;28;20050;-74
2022/10/27 08:03:10;;;;;;;18.63;10.95;;;14.60;99.90;;;;;;4972395;28;20126;-74
2022/10/27 08:05:36;;;;;;;17.38;10.02;;;14.60;99.90;;;;;;4955566;28;20112;-73
2022/10/27 08:08:04;;;;;;;16.17;10.13;;;14.70;99.90;;;;;;4981525;28;20053;-75
2022/10/27 08:10:32;;;;;;;17.70;10.35;;;14.70;99.90;;;;;;4972962;28;20038;-74
2022/10/27 08:12:57;;;;;;;13.25;9.38;;;14.80;99.90;;;;;;4955964;28;20116;-73
2022/10/27 08:15:24;;;;;;;13.82;9.35;;;14.80;99.90;;;;;;4969479;28;20118;-75
2022/10/27 08:17:55;;;;;;;15.93;9.43;;;14.80;99.90;;;;;;4982797;28;20043;-74
2022/10/27 08:20:22;;;;;;;14.55;9.60;;;14.90;99.90;;;;;;4967113;28;20467;-75
2022/10/27 08:22:59;;;;;;;14.95;9.77;;;14.90;99.90;;;;;;4970656;28;20126;-75
2022/10/27 08:25:25;;;;;;;17.83;9.85;;;15.00;99.90;;;;;;4966333;28;20046;-74
2022/10/27 08:27:51;;;;;;;17.30;10.27;;;15.10;99.90;;;;;;4955477;28;20124;-74
2022/10/27 08:30:18;;;;;;;14.25;9.10;;;15.20;99.90;;;;;;4967016;28;20043;-74
2022/10/27 08:32:43;;;;;;;14.20;9.77;;;15.30;99.90;;;;;;4982055;28;20101;-74
2022/10/27 08:35:09;;;;;;;13.77;9.02;;;15.30;99.90;;;;;;4974239;28;20424;-74
2022/10/27 08:37:35;;;;;;;14.38;8.35;;;15.30;99.90;;;;;;4950180;28;20046;-74
2022/10/27 08:40:00;;;;;;;14.88;8.65;;;15.40;99.90;;;;;;4982357;28;20065;-75
2022/10/27 08:42:44;;;;;;;14.88;8.50;;;15.40;99.90;;;;;;4955349;28;20039;-76
2022/10/27 08:45:27;;;;;;;12.70;8.20;;;15.40;99.90;;;;;;4981287;28;20047;-75
2022/10/27 08:47:58;;;;;;;14.32;8.45;;;15.50;99.90;;;;;;4979451;28;20121;-75
2022/10/27 08:50:28;;;;;;;11.68;7.65;;;15.50;99.90;;;;;;4964069;28;20387;-75
2022/10/27 08:53:02;;;;;;;14.77;7.78;;;15.60;99.90;;;;;;4953499;28;20368;-75
2022/10/27 08:55:45;;;;;;;12.18;8.10;;;15.60;99.90;;;;;;4979436;28;20047;-74
2022/10/27 08:58:42;;;;;;;12.40;7.22;;;15.60;99.90;;;;;;4955025;28;20113;-74
2022/10/27 09:01:32;;;;;;;14.35;7.50;;;15.60;99.90;;;;;;4967257;28;21156;-75
2022/10/27 09:04:10;;;;;;;12.30;7.00;;;15.60;99.90;;;;;;4967580;28;20105;-74
2022/10/27 09:06:50;;;;;;;12.05;6.90;;;15.70;99.90;;;;;;4966904;28;20047;-75
2022/10/27 09:09:23;;;;;;;14.48;7.75;;;15.70;99.90;;;;;;4993114;28;20093;-77
2022/10/27 09:12:11;;;;;;;12.43;6.78;;;15.80;99.90;;;;;;4953751;28;20046;-73
2022/10/27 09:14:55;;;;;;;12.68;6.88;;;16.00;99.90;;;;;;4977108;28;20475;-73
2022/10/27 09:17:53;;;;;;;13.45;6.50;;;16.10;99.90;;;;;;4969208;28;20081;-75
2022/10/27 09:20:40;;;;;;;10.32;6.28;;;16.20;99.90;;;;;;4972175;28;20082;-74
2022/10/27 09:23:17;;;;;;;10.40;6.32;;;16.40;99.90;;;;;;4962516;28;20093;-74
2022/10/27 09:25:46;;;;;;;11.13;5.80;;;16.50;99.90;;;;;;4965565;28;20427;-73
2022/10/27 09:28:17;;;;;;;11.77;5.70;;;16.60;99.90;;;;;;4968105;28;20057;-74
2022/10/27 09:30:46;;;;;;;10.90;5.75;;;16.70;99.90;;;;;;4963607;28;20038;-73
2022/10/27 09:33:18;;;;;;;11.43;5.55;;;16.70;99.90;;;;;;4963968;28;20070;-73
2022/10/27 09:35:45;;;;;;;8.98;5.22;;;16.90;99.90;;;;;;4968002;28;20375;-73
2022/10/27 09:38:20;;;;;;;12.25;5.25;;;16.90;99.90;;;;;;4968968;28;20109;-74
2022/10/27 09:40:46;;;;;;;9.23;4.80;;;17.00;99.90;;;;;;4968664;28;20061;-76
2022/10/27 09:43:12;;;;;;;8.85;4.53;;;17.10;99.90;;;;;;4952609;28;20046;-74
2022/10/27 09:45:39;;;;;;;9.48;4.63;;;17.20;99.90;;;;;;4976837;28;20413;-75
2022/10/27 09:48:12;;;;;;;9.85;4.10;;;17.20;99.90;;;;;;4952253;28;20074;-73
2022/10/27 09:50:47;;;;;;;10.68;5.00;;;17.20;99.90;;;;;;4968674;28;20386;-75
2022/10/27 09:53:42;;;;;;;9.07;4.03;;;17.30;99.90;;;;;;4985997;28;20459;-74
2022/10/27 09:56:30;;;;;;;9.40;4.45;;;17.30;99.90;;;;;;4986375;28;20105;-74
2022/10/27 09:59:04;;;;;;;8.23;3.80;;;17.30;99.90;;;;;;4971028;28;20057;-75
2022/10/27 10:01:42;;;;;;;11.32;3.92;;;17.30;99.90;;;;;;4959747;28;20091;-73
2022/10/27 10:04:30;;;;;;;9.23;4.20;;;17.30;99.90;;;;;;4993418;28;20042;-73
2022/10/27 10:07:02;;;;;;;8.82;3.85;;;17.40;99.90;;;;;;4984690;28;20549;-73
2022/10/27 10:09:35;;;;;;;8.07;3.80;;;17.40;99.90;;;;;;4985205;28;20379;-73
2022/10/27 10:12:19;;;;;;;10.95;3.60;;;17.50;99.90;;;;;;4985217;28;20101;-75
2022/10/27 10:14:45;;;;;;;8.90;3.42;;;17.50;99.90;;;;;;4986094;28;20073;-73
2022/10/27 10:17:26;;;;;;;8.32;3.70;;;17.60;99.90;;;;;;4968893;28;20237;-73
2022/10/27 10:19:55;;;;;;;9.30;3.50;;;17.70;99.90;;;;;;4985270;28;20443;-76
2022/10/27 10:22:30;;;;;;;7.75;3.17;;;17.70;99.90;;;;;;4969183;28;20054;-75
2022/10/27 10:25:03;;;;;;;8.23;3.15;;;17.70;99.90;;;;;;4953789;28;20035;-74
2022/10/27 10:27:33;;;;;;;9.60;3.10;;;17.80;99.90;;;;;;4969712;28;20109;-75
2022/10/27 10:30:02;;;;;;;9.18;3.30;;;17.90;99.90;;;;;;4964050;28;20039;-76
2022/10/27 10:32:32;;;;;;;7.95;3.00;;;18.00;99.90;;;;;;4968476;28;20126;-73
2022/10/27 10:34:59;;;;;;;9.18;2.88;;;18.00;99.90;;;;;;4964248;28;20043;-75
2022/10/27 10:37:42;;;;;;;7.90;3.03;;;18.20;99.90;;;;;;4967868;28;20042;-75
2022/10/27 10:40:14;;;;;;;6.63;2.80;;;18.30;99.90;;;;;;4969377;28;20042;-75
2022/10/27 10:42:42;;;;;;;;;;;18.50;99.90;;;;;;4987421;28;20039;-76
2022/10/27 10:45:21;;;;;;;7.30;2.50;;;18.50;99.90;;;;;;4969748;28;19918;-75
2022/10/27 10:47:51;;;;;;;9.13;2.72;;;18.50;99.90;;;;;;4967704;28;20050;-74
2022/10/27 10:50:17;;;;;;;7.95;2.60;;;18.50;99.90;;;;;;4951880;28;20054;-75
2022/10/27 10:52:49;;;;;;;7.22;2.47;;;18.60;99.90;;;;;;4965496;28;20058;-75
2022/10/27 10:55:38;;;;;;;6.30;2.55;;;18.60;99.90;;;;;;4979572;28;20468;-74
2022/10/27 10:58:04;;;;;;;7.05;2.45;;;18.50;99.90;;;;;;4968799;28;20113;-74
2022/10/27 11:00:29;;;;;;;6.50;2.40;;;18.40;99.90;;;;;;4946818;28;20035;-74
2022/10/27 11:03:08;;;;;;;7.68;2.50;;;18.40;99.90;;;;;;4964239;28;20039;-74
2022/10/27 11:05:35;;;;;;;6.63;2.45;;;18.40;99.90;;;;;;4978424;28;20043;-75
2022/10/27 11:08:05;;;;;;;6.97;2.63;;;18.40;99.90;;;;;;4955043;28;20053;-75
2022/10/27 11:10:34;;;;;;;8.30;2.58;;;18.40;99.90;;;;;;4966269;28;20501;-74
2022/10/27 11:13:24;;;;;;;6.82;2.50;;;18.40;99.90;;;;;;4966758;28;20046;-73
2022/10/27 11:16:10;;;;;;;7.00;2.40;;;18.30;99.90;;;;;;4969581;28;20430;-73
2022/10/27 11:18:41;;;;;;;8.80;2.53;;;18.40;99.90;;;;;;4975269;28;20050;-74
2022/10/27 11:21:25;;;;;;;6.23;2.20;;;18.40;99.90;;;;;;4985586;28;20046;-74
2022/10/27 11:24:05;;;;;;;7.25;2.50;;;18.50;99.90;;;;;;4985265;28;20364;-74
2022/10/27 11:26:40;;;;;;;6.75;2.42;;;18.60;99.90;;;;;;4981862;28;20039;-73
2022/10/27 11:29:26;;;;;;;5.55;2.13;;;18.70;99.90;;;;;;4984818;28;20150;-74
2022/10/27 11:32:08;;;;;;;8.65;2.40;;;18.70;99.90;;;;;;4966778;28;20062;-75
2022/10/27 11:35:08;;;;;;;6.82;2.28;;;18.70;99.90;;;;;;4987705;28;20054;-74
2022/10/27 11:38:03;;;;;;;6.20;2.13;;;18.70;99.90;;;;;;4990283;28;20499;-73
2022/10/27 11:40:36;;;;;;;7.15;2.22;;;18.80;99.90;;;;;;4989935;28;20042;-76
2022/10/27 11:43:11;;;;;;;6.45;2.28;;;18.70;99.90;;;;;;4953015;28;20047;-75
2022/10/27 11:45:41;;;;;;;5.95;1.98;;;18.70;99.90;;;;;;4972242;28;20089;-74
2022/10/27 11:48:18;;;;;;;9.15;2.10;;;18.70;99.90;;;;;;4972018;28;20628;-76
2022/10/27 11:51:07;;;;;;;5.78;1.88;;;18.70;99.90;;;;;;4989417;28;20057;-75
2022/10/27 11:53:33;;;;;;;6.40;2.00;;;18.70;99.90;;;;;;4973236;28;20053;-73
2022/10/27 11:55:59;;;;;;;7.05;2.00;;;18.60;99.90;;;;;;4971196;28;20480;-75
2022/10/27 11:58:41;;;;;;;8.27;2.20;;;18.70;99.90;;;;;;4989360;28;20043;-74
2022/10/27 12:01:17;;;;;;;5.45;1.80;;;18.80;99.90;;;;;;4989384;28;20046;-74
2022/10/27 12:04:17;;;;;;;5.30;2.10;;;18.80;99.90;;;;;;4969949;28;20699;-75
2022/10/27 12:06:53;;;;;;;7.15;1.90;;;18.80;99.90;;;;;;4970917;28;20078;-74
2022/10/27 12:09:52;;;;;;;6.63;2.10;;;18.80;99.90;;;;;;4957313;28;20062;-73
2022/10/27 12:12:35;;;;;;;4.50;1.80;;;18.80;99.90;;;;;;4970289;28;20054;-75
2022/10/27 12:15:30;;;;;;;6.25;1.90;;;18.80;99.90;;;;;;4988227;28;20181;-75
2022/10/27 12:18:24;;;;;;;7.53;2.05;;;18.70;99.90;;;;;;4971858;28;20046;-76
2022/10/27 12:21:05;;;;;;;7.93;2.20;;;18.70;99.90;;;;;;4987056;28;20042;-74
2022/10/27 12:23:38;;;;;;;6.47;1.95;;;18.70;99.90;;;;;;4971970;28;20491;-74
2022/10/27 12:26:22;;;;;;;10.70;2.33;;;18.70;99.90;;;;;;4954430;28;20050;-73
2022/10/27 12:28:50;;;;;;;7.70;1.85;;;18.70;99.90;;;;;;4973511;28;20065;-73
2022/10/27 12:31:25;;;;;;;7.80;1.80;;;18.70;99.90;;;;;;4972617;28;20047;-74
2022/10/27 12:34:02;;;;;;;6.28;2.00;;;18.70;99.90;;;;;;4955264;28;20038;-76
2022/10/27 12:37:13;;;;;;;6.47;2.03;;;18.70;99.90;;;;;;4953174;28;20034;-73
2022/10/27 12:39:41;;;;;;;7.22;2.00;;;18.70;99.90;;;;;;4966556;28;20486;-76
2022/10/27 12:42:18;;;;;;;6.38;1.98;;;18.80;99.90;;;;;;4993809;28;20042;-73
2022/10/27 12:45:11;;;;;;;8.45;2.17;;;18.80;99.90;;;;;;4986548;28;20057;-75
2022/10/27 12:48:00;;;;;;;6.47;1.80;;;18.80;99.90;;;;;;4970594;28;20054;-75
2022/10/27 12:51:03;;;;;;;6.10;1.80;;;18.90;99.90;;;;;;4956585;28;20046;-73
2022/10/27 12:53:51;;;;;;;7.45;2.20;;;18.90;99.90;;;;;;4971083;28;20485;-73